createdAt,value
2024-02-22T00:00:31.980Z,99324.95
2024-02-22T00:03:22.493Z,99321.16
2024-02-22T00:05:51.889Z,99319.11
2024-02-22T00:08:23.310Z,99316.02
2024-02-22T00:10:52.926Z,99309.02
2024-02-22T00:13:23.777Z,99303.31
2024-02-22T00:15:53.181Z,99295.54
2024-02-22T00:18:24.492Z,99288.23
2024-02-22T00:20:54.125Z,99284.06
2024-02-22T00:23:24.789Z,99279.23
2024-02-22T00:25:54.193Z,99273.86
2024-02-22T00:28:25.300Z,99265.20
2024-02-22T00:30:54.716Z,99260.14
2024-02-22T00:33:25.233Z,99252.66
2024-02-22T00:35:54.533Z,99247.14
2024-02-22T00:38:26.570Z,99239.11
2024-02-22T00:40:56.044Z,99229.93
2024-02-22T00:43:27.108Z,99232.19
2024-02-22T00:45:56.856Z,99226.36
2024-02-22T00:48:27.796Z,99219.11
2024-02-22T00:50:57.309Z,99217.13
2024-02-22T00:53:28.165Z,99214.70
2024-02-22T00:55:57.574Z,99212.05
2024-02-22T00:58:29.214Z,99214.00
2024-02-22T01:00:58.715Z,99206.54
2024-02-22T01:03:32.796Z,99205.20
2024-02-22T01:06:05.598Z,99199.70
2024-02-22T01:08:35.301Z,99198.20
2024-02-22T01:11:06.098Z,99188.15
2024-02-22T01:13:35.463Z,99181.31
2024-02-22T01:16:07.267Z,99174.19
2024-02-22T01:18:36.715Z,99165.98
2024-02-22T01:21:07.332Z,99165.89
2024-02-22T01:23:37.120Z,99160.54
2024-02-22T01:26:07.742Z,99153.30
2024-02-22T01:28:37.397Z,99148.70
2024-02-22T01:31:08.114Z,99147.33
2024-02-22T01:33:37.679Z,99146.30
2024-02-22T01:36:08.979Z,99140.23
2024-02-22T01:38:38.533Z,99138.38
2024-02-22T01:41:09.349Z,99137.64
2024-02-22T01:43:38.854Z,99136.56
2024-02-22T01:46:09.541Z,99133.64
2024-02-22T01:48:39.037Z,99129.95
2024-02-22T01:51:09.778Z,99132.02
2024-02-22T01:53:39.289Z,99125.89
2024-02-22T01:56:09.910Z,99122.96
2024-02-22T01:58:39.602Z,99118.45
2024-02-22T02:01:12.372Z,99117.38
2024-02-22T02:03:41.754Z,99111.50
2024-02-22T02:06:12.581Z,99107.43
2024-02-22T02:08:41.946Z,99103.27
2024-02-22T02:11:12.566Z,99097.67
2024-02-22T02:13:41.992Z,99091.89
2024-02-22T02:16:12.505Z,99087.14
2024-02-22T02:18:41.984Z,99078.82
2024-02-22T02:21:20.829Z,99075.45
2024-02-22T02:24:09.901Z,99072.66
2024-02-22T02:26:40.808Z,99075.46
2024-02-22T02:29:10.318Z,99068.56
2024-02-22T02:31:41.015Z,99066.95
2024-02-22T02:34:10.409Z,99063.86
2024-02-22T02:36:41.113Z,99060.00
2024-02-22T02:39:10.402Z,99051.27
2024-02-22T02:41:40.933Z,99043.43
2024-02-22T02:44:10.314Z,99042.36
2024-02-22T02:46:41.000Z,99037.33
2024-02-22T02:49:10.532Z,99033.04
2024-02-22T02:51:41.518Z,99030.91
2024-02-22T02:54:10.907Z,99029.12
2024-02-22T02:56:41.540Z,99023.55
2024-02-22T02:59:10.961Z,99019.37
2024-02-22T03:01:48.494Z,99017.54
2024-02-22T03:04:19.389Z,99009.80
2024-02-22T03:06:49.223Z,99000.73
2024-02-22T03:09:20.348Z,98998.09
2024-02-22T03:11:49.907Z,99000.42
2024-02-22T03:14:20.965Z,98996.10
2024-02-22T03:16:50.416Z,98998.96
2024-02-22T03:19:21.013Z,98995.10
2024-02-22T03:21:50.309Z,98992.73
2024-02-22T03:24:21.719Z,98992.91
2024-02-22T03:26:51.060Z,98998.70
2024-02-22T03:29:23.164Z,98995.05
2024-02-22T03:31:52.572Z,98988.05
2024-02-22T03:34:23.933Z,98988.20
2024-02-22T03:36:53.385Z,98990.06
2024-02-22T03:39:23.899Z,98987.77
2024-02-22T03:41:53.924Z,98992.69
2024-02-22T03:44:24.553Z,98994.33
2024-02-22T03:46:54.105Z,98988.48
2024-02-22T03:49:24.727Z,98986.70
2024-02-22T03:51:54.091Z,98989.92
2024-02-22T03:54:24.722Z,98989.17
2024-02-22T03:56:54.531Z,98992.23
2024-02-22T03:59:25.272Z,98985.76
2024-02-22T04:01:55.425Z,98984.41
2024-02-22T04:04:29.298Z,98984.15
2024-02-22T04:06:59.702Z,98983.05
2024-02-22T04:09:30.553Z,98982.88
2024-02-22T04:11:59.954Z,98982.38
2024-02-22T04:14:30.686Z,98983.96
2024-02-22T04:17:00.728Z,98978.61
2024-02-22T04:19:31.389Z,98978.02
2024-02-22T04:22:00.950Z,98979.98
2024-02-22T04:24:31.671Z,98979.01
2024-02-22T04:27:00.979Z,98978.04
2024-02-22T04:29:31.573Z,98970.08
2024-02-22T04:32:00.950Z,98962.91
2024-02-22T04:34:32.618Z,98963.30
2024-02-22T04:37:02.378Z,98958.00
2024-02-22T04:39:32.915Z,98961.11
2024-02-22T04:42:02.427Z,98962.14
2024-02-22T04:44:33.043Z,98954.52
2024-02-22T04:47:02.517Z,98953.23
2024-02-22T04:49:33.234Z,98945.89
2024-02-22T04:52:04.734Z,98935.14
2024-02-22T04:54:41.338Z,98936.02
2024-02-22T04:57:14.590Z,98930.07
2024-02-22T04:59:43.885Z,98929.91
2024-02-22T05:02:14.458Z,98924.95
2024-02-22T05:04:43.966Z,98923.67
2024-02-22T05:07:14.869Z,98923.95
2024-02-22T05:09:44.274Z,98917.81
2024-02-22T05:12:14.962Z,98914.90
2024-02-22T05:14:47.471Z,98905.87
2024-02-22T05:17:18.812Z,98899.39
2024-02-22T05:19:51.217Z,98895.27
2024-02-22T05:22:21.927Z,98887.27
2024-02-22T05:24:51.230Z,98888.09
2024-02-22T05:27:22.169Z,98888.23
2024-02-22T05:29:51.578Z,98882.59
2024-02-22T05:32:22.468Z,98871.55
2024-02-22T05:34:52.077Z,98878.98
2024-02-22T05:37:22.644Z,98878.79
2024-02-22T05:39:51.945Z,98881.20
2024-02-22T05:42:22.779Z,98877.39
2024-02-22T05:44:52.486Z,98880.47
2024-02-22T05:47:23.218Z,98875.63
2024-02-22T05:49:52.946Z,98875.86
2024-02-22T05:52:23.684Z,98882.43
2024-02-22T05:54:52.960Z,98880.16
2024-02-22T05:57:23.491Z,98885.13
2024-02-22T05:59:52.787Z,98888.56
2024-02-22T06:02:23.568Z,98881.73
2024-02-22T06:04:53.185Z,98876.64
2024-02-22T06:07:24.089Z,98868.49
2024-02-22T06:09:53.781Z,98859.82
2024-02-22T06:12:24.353Z,98851.71
2024-02-22T06:14:53.720Z,98849.80
2024-02-22T06:17:24.327Z,98846.88
2024-02-22T06:19:53.978Z,98844.28
2024-02-22T06:22:24.778Z,98852.11
2024-02-22T06:24:54.182Z,98852.16
2024-02-22T06:27:24.809Z,98848.71
2024-02-22T06:29:54.230Z,98844.36
2024-02-22T06:32:28.024Z,98839.71
2024-02-22T06:34:57.991Z,98840.84
2024-02-22T06:37:28.673Z,98835.56
2024-02-22T06:39:58.035Z,98838.41
2024-02-22T06:42:28.708Z,98837.83
2024-02-22T06:44:58.005Z,98834.67
2024-02-22T06:47:28.555Z,98833.84
2024-02-22T06:49:58.053Z,98829.08
2024-02-22T06:52:28.875Z,98828.93
2024-02-22T06:54:58.577Z,98829.39
2024-02-22T06:57:29.726Z,98826.02
2024-02-22T06:59:59.329Z,98823.91
2024-02-22T07:02:30.068Z,98822.33
2024-02-22T07:04:59.387Z,98816.60
2024-02-22T07:07:29.996Z,98813.35
2024-02-22T07:09:59.306Z,98808.45
2024-02-22T07:12:29.821Z,98800.55
2024-02-22T07:14:59.128Z,98798.88
2024-02-22T07:17:30.459Z,98804.48
2024-02-22T07:20:00.026Z,98806.73
2024-02-22T07:22:30.706Z,98803.39
2024-02-22T07:25:00.412Z,98796.91
2024-02-22T07:27:31.069Z,98799.12
2024-02-22T07:30:00.414Z,98793.65
2024-02-22T07:32:31.375Z,98787.40
2024-02-22T07:35:01.991Z,98789.02
2024-02-22T07:37:33.222Z,98795.02
2024-02-22T07:40:02.490Z,98800.31
2024-02-22T07:42:34.588Z,98801.36
2024-02-22T07:45:05.595Z,98804.53
2024-02-22T07:47:36.104Z,98806.82
2024-02-22T07:50:05.967Z,98800.47
2024-02-22T07:52:37.101Z,98792.34
2024-02-22T07:55:07.787Z,98786.02
2024-02-22T07:57:38.413Z,98775.23
2024-02-22T08:00:10.773Z,98773.89
2024-02-22T08:02:43.424Z,98774.80
2024-02-22T08:05:13.106Z,98775.33
2024-02-22T08:07:45.255Z,98778.73
2024-02-22T08:10:15.971Z,98771.62
2024-02-22T08:12:46.602Z,98771.67
2024-02-22T08:15:16.732Z,98770.77
2024-02-22T08:17:47.904Z,98764.73
2024-02-22T08:20:17.660Z,98758.40
2024-02-22T08:22:48.999Z,98755.61
2024-02-22T08:25:18.804Z,98747.47
2024-02-22T08:27:59.009Z,98745.39
2024-02-22T08:30:37.612Z,98738.37
2024-02-22T08:33:07.360Z,98732.14
2024-02-22T08:35:38.055Z,98734.34
2024-02-22T08:38:07.494Z,98730.75
2024-02-22T08:40:47.357Z,98721.59
2024-02-22T08:43:18.345Z,98717.21
2024-02-22T08:45:50.721Z,98713.13
2024-02-22T08:48:21.545Z,98713.80
2024-02-22T08:50:50.959Z,98714.08
2024-02-22T08:53:21.688Z,98709.43
2024-02-22T08:55:51.648Z,98707.29
2024-02-22T08:58:22.228Z,98700.64
2024-02-22T09:00:51.682Z,98691.19
2024-02-22T09:03:22.335Z,98684.65
2024-02-22T09:05:52.075Z,98676.67
2024-02-22T09:08:23.450Z,98667.82
2024-02-22T09:10:56.208Z,98665.54
2024-02-22T09:13:27.445Z,98661.18
2024-02-22T09:15:57.157Z,98654.98
2024-02-22T09:18:27.971Z,98650.91
2024-02-22T09:20:57.660Z,98646.62
2024-02-22T09:23:28.403Z,98644.21
2024-02-22T09:25:57.818Z,98637.23
2024-02-22T09:28:28.469Z,98628.16
2024-02-22T09:30:59.024Z,98622.90
2024-02-22T09:33:29.726Z,98617.87
2024-02-22T09:35:59.652Z,98621.14
2024-02-22T09:38:35.718Z,98616.61
2024-02-22T09:41:07.608Z,98616.17
2024-02-22T09:43:37.625Z,98609.68
2024-02-22T09:46:08.967Z,98607.70
2024-02-22T09:48:38.333Z,98607.56
2024-02-22T09:51:09.064Z,98602.30
2024-02-22T09:53:38.474Z,98594.79
2024-02-22T09:56:11.000Z,98595.33
2024-02-22T09:58:40.886Z,98590.48
2024-02-22T10:01:11.555Z,98597.89
2024-02-22T10:03:42.040Z,98596.27
2024-02-22T10:06:19.653Z,98595.11
2024-02-22T10:08:50.270Z,98593.77
2024-02-22T10:11:21.474Z,98591.98
2024-02-22T10:14:03.351Z,98593.02
2024-02-22T10:16:34.140Z,98592.85
2024-02-22T10:19:03.535Z,98590.77
2024-02-22T10:21:34.266Z,98590.83
2024-02-22T10:24:04.478Z,98584.74
2024-02-22T10:26:35.030Z,98583.86
2024-02-22T10:29:11.112Z,98576.41
2024-02-22T10:31:41.890Z,98569.73
2024-02-22T10:34:11.370Z,98565.23
2024-02-22T10:36:42.348Z,98559.80
2024-02-22T10:39:12.660Z,98559.80
2024-02-22T10:41:43.197Z,98555.45
2024-02-22T10:44:12.863Z,98550.59
2024-02-22T10:46:43.657Z,98552.98
2024-02-22T10:49:13.432Z,98547.73
2024-02-22T10:51:44.492Z,98538.38
2024-02-22T10:54:13.991Z,98541.67
2024-02-22T10:56:44.889Z,98542.27
2024-02-22T10:59:15.864Z,98535.32
2024-02-22T11:01:47.464Z,98534.84
2024-02-22T11:04:17.587Z,98537.89
2024-02-22T11:06:49.609Z,98537.23
2024-02-22T11:09:19.726Z,98526.72
2024-02-22T11:11:53.113Z,98523.04
2024-02-22T11:14:29.472Z,98529.77
2024-02-22T11:17:01.520Z,98515.23
2024-02-22T11:19:31.261Z,98502.56
2024-02-22T11:22:01.912Z,98501.80
2024-02-22T11:24:31.357Z,98489.02
2024-02-22T11:27:02.226Z,98480.45
2024-02-22T11:29:34.262Z,98472.71
2024-02-22T11:32:06.374Z,98474.14
2024-02-22T11:34:38.724Z,98479.25
2024-02-22T11:37:18.551Z,98482.59
2024-02-22T11:39:59.591Z,98476.66
2024-02-22T11:42:31.209Z,98463.87
2024-02-22T11:45:10.946Z,98455.73
2024-02-22T11:47:41.647Z,98441.02
2024-02-22T11:50:11.024Z,98435.45
2024-02-22T11:52:43.134Z,98429.92
2024-02-22T11:55:12.548Z,98426.34
2024-02-22T11:57:43.543Z,98420.15
2024-02-22T12:00:13.301Z,98419.31
2024-02-22T12:02:44.750Z,98420.31
2024-02-22T12:05:14.315Z,98414.48
2024-02-22T12:07:45.051Z,98412.83
2024-02-22T12:10:14.739Z,98413.45
2024-02-22T12:12:45.424Z,98419.07
2024-02-22T12:15:21.182Z,98419.92
2024-02-22T12:17:54.596Z,98419.52
2024-02-22T12:20:24.654Z,98415.55
2024-02-22T12:22:56.745Z,98414.52
2024-02-22T12:25:26.396Z,98411.06
2024-02-22T12:27:58.147Z,98406.18
2024-02-22T12:30:27.838Z,98407.24
2024-02-22T12:32:57.994Z,98402.55
2024-02-22T12:35:27.387Z,98395.66
2024-02-22T12:37:58.620Z,98393.24
2024-02-22T12:40:27.896Z,98394.39
2024-02-22T12:42:58.503Z,98389.02
2024-02-22T12:45:27.811Z,98383.01
2024-02-22T12:47:58.525Z,98381.73
2024-02-22T12:50:28.188Z,98376.46
2024-02-22T12:52:58.816Z,98379.60
2024-02-22T12:55:28.116Z,98370.52
2024-02-22T12:57:59.117Z,98371.46
2024-02-22T13:00:28.441Z,98365.15
2024-02-22T13:02:59.346Z,98361.70
2024-02-22T13:05:32.435Z,98364.59
2024-02-22T13:08:08.235Z,98359.73
2024-02-22T13:10:41.986Z,98356.93
2024-02-22T13:13:11.753Z,98351.08
2024-02-22T13:15:47.573Z,98342.47
2024-02-22T13:18:16.978Z,98337.65
2024-02-22T13:20:47.851Z,98329.86
2024-02-22T13:23:17.369Z,98321.22
2024-02-22T13:25:48.024Z,98315.16
2024-02-22T13:28:18.011Z,98310.13
2024-02-22T13:30:48.534Z,98307.98
2024-02-22T13:33:18.226Z,98297.76
2024-02-22T13:35:48.958Z,98296.48
2024-02-22T13:38:18.519Z,98290.49
2024-02-22T13:40:49.140Z,98280.35
2024-02-22T13:43:18.880Z,98277.80
2024-02-22T13:45:49.545Z,98273.46
2024-02-22T13:48:19.173Z,98265.38
2024-02-22T13:50:50.016Z,98259.88
2024-02-22T13:53:19.448Z,98254.81
2024-02-22T13:55:50.554Z,98254.52
2024-02-22T13:58:19.832Z,98249.38
2024-02-22T14:00:50.710Z,98243.06
2024-02-22T14:03:20.171Z,98239.06
2024-02-22T14:05:53.177Z,98238.04
2024-02-22T14:08:23.746Z,98234.53
2024-02-22T14:10:54.391Z,98229.48
2024-02-22T14:13:25.173Z,98222.49
2024-02-22T14:15:55.983Z,98213.39
2024-02-22T14:18:25.751Z,98208.57
2024-02-22T14:20:56.635Z,98208.77
2024-02-22T14:23:26.024Z,98197.27
2024-02-22T14:25:56.814Z,98203.16
2024-02-22T14:28:26.380Z,98199.85
2024-02-22T14:30:57.926Z,98196.27
2024-02-22T14:33:27.929Z,98193.02
2024-02-22T14:35:59.373Z,98191.27
2024-02-22T14:38:29.607Z,98187.43
2024-02-22T14:41:00.269Z,98182.09
2024-02-22T14:43:29.659Z,98181.89
2024-02-22T14:46:01.932Z,98174.14
2024-02-22T14:48:33.299Z,98175.34
2024-02-22T14:51:04.366Z,98171.29
2024-02-22T14:53:37.287Z,98160.66
2024-02-22T14:56:09.807Z,98153.52
2024-02-22T14:58:41.735Z,98143.52
2024-02-22T15:01:13.278Z,98135.67
2024-02-22T15:03:42.576Z,98138.13
2024-02-22T15:06:17.706Z,98129.09
2024-02-22T15:08:49.280Z,98119.55
2024-02-22T15:11:18.729Z,98122.20
2024-02-22T15:13:52.098Z,98115.79
2024-02-22T15:16:22.092Z,98118.02
2024-02-22T15:18:52.764Z,98119.17
2024-02-22T15:21:22.238Z,98116.46
2024-02-22T15:23:53.661Z,98119.48
2024-02-22T15:26:23.036Z,98118.23
2024-02-22T15:28:53.838Z,98116.29
2024-02-22T15:31:23.424Z,98109.80
2024-02-22T15:34:01.451Z,98105.89
2024-02-22T15:36:40.773Z,98097.98
2024-02-22T15:39:10.120Z,98092.66
2024-02-22T15:41:42.069Z,98089.14
2024-02-22T15:44:12.695Z,98087.59
2024-02-22T15:46:47.519Z,98086.04
2024-02-22T15:49:17.159Z,98085.49
2024-02-22T15:51:48.142Z,98090.19
2024-02-22T15:54:17.742Z,98082.52
2024-02-22T15:56:48.266Z,98085.16
2024-02-22T15:59:17.628Z,98085.83
2024-02-22T16:01:59.618Z,98088.32
2024-02-22T16:04:30.632Z,98094.52
2024-02-22T16:07:00.012Z,98092.70
2024-02-22T16:09:31.351Z,98092.38
2024-02-22T16:12:00.888Z,98095.59
2024-02-22T16:14:31.763Z,98097.61
2024-02-22T16:17:01.232Z,98083.38
2024-02-22T16:19:32.098Z,98071.63
2024-02-22T16:22:01.545Z,98067.52
2024-02-22T16:24:35.135Z,98065.77
2024-02-22T16:27:05.548Z,98056.81
2024-02-22T16:29:37.888Z,98051.87
2024-02-22T16:32:07.921Z,98049.45
2024-02-22T16:34:40.367Z,98042.66
2024-02-22T16:37:14.606Z,98036.42
2024-02-22T16:39:45.950Z,98031.48
2024-02-22T16:42:15.320Z,98029.48
2024-02-22T16:44:45.925Z,98031.14
2024-02-22T16:47:19.574Z,98022.27
2024-02-22T16:49:50.422Z,98021.85
2024-02-22T16:52:22.335Z,98014.82
2024-02-22T16:54:54.779Z,98009.20
2024-02-22T16:57:24.192Z,98010.19
2024-02-22T16:59:55.536Z,98010.61
2024-02-22T17:02:26.309Z,98013.02
2024-02-22T17:04:59.200Z,98016.13
2024-02-22T17:07:28.555Z,98021.02
2024-02-22T17:09:59.089Z,98017.23
2024-02-22T17:12:28.494Z,98014.49
2024-02-22T17:14:59.216Z,98021.25
2024-02-22T17:17:36.345Z,98016.89
2024-02-22T17:20:07.739Z,98014.56
2024-02-22T17:22:37.250Z,98012.00
2024-02-22T17:25:11.422Z,98010.21
2024-02-22T17:27:40.778Z,98007.72
2024-02-22T17:30:13.138Z,98006.06
2024-02-22T17:32:42.947Z,98003.84
2024-02-22T17:35:16.841Z,98000.67
2024-02-22T17:37:46.610Z,98003.54
2024-02-22T17:40:17.422Z,98004.29
2024-02-22T17:42:46.918Z,98006.14
2024-02-22T17:45:17.858Z,98010.48
2024-02-22T17:47:47.179Z,98004.67
2024-02-22T17:50:17.702Z,98001.19
2024-02-22T17:52:47.550Z,98000.08
2024-02-22T17:55:18.348Z,97991.90
2024-02-22T17:57:47.743Z,97989.20
2024-02-22T18:00:25.822Z,97989.80
2024-02-22T18:03:03.573Z,97981.98
2024-02-22T18:05:36.802Z,97970.35
2024-02-22T18:08:09.273Z,97962.22
2024-02-22T18:10:40.046Z,97959.05
2024-02-22T18:13:09.359Z,97958.33
2024-02-22T18:15:40.378Z,97956.61
2024-02-22T18:18:09.920Z,97952.92
2024-02-22T18:20:42.434Z,97949.00
2024-02-22T18:23:11.808Z,97947.98
2024-02-22T18:25:42.530Z,97945.31
2024-02-22T18:28:12.309Z,97943.16
2024-02-22T18:30:44.885Z,97942.49
2024-02-22T18:33:14.229Z,97937.22
2024-02-22T18:35:44.865Z,97933.95
2024-02-22T18:38:15.243Z,97924.84
2024-02-22T18:40:45.868Z,97921.84
2024-02-22T18:43:15.147Z,97917.41
2024-02-22T18:45:45.770Z,97912.66
2024-02-22T18:48:15.236Z,97905.67
2024-02-22T18:50:45.929Z,97901.48
2024-02-22T18:53:15.417Z,97896.19
2024-02-22T18:55:45.969Z,97892.55
2024-02-22T18:58:15.340Z,97890.55
2024-02-22T19:00:46.316Z,97884.56
2024-02-22T19:03:17.527Z,97879.61
2024-02-22T19:05:49.433Z,97872.30
2024-02-22T19:08:19.653Z,97866.75
2024-02-22T19:10:50.354Z,97859.01
2024-02-22T19:13:19.844Z,97854.48
2024-02-22T19:15:50.369Z,97844.17
2024-02-22T19:18:20.509Z,97844.80
2024-02-22T19:20:53.485Z,97840.58
2024-02-22T19:23:24.027Z,97829.23
2024-02-22T19:25:56.116Z,97824.51
2024-02-22T19:28:25.579Z,97819.09
2024-02-22T19:30:56.604Z,97811.91
2024-02-22T19:33:26.628Z,97807.81
2024-02-22T19:35:57.403Z,97804.98
2024-02-22T19:38:26.749Z,97793.64
2024-02-22T19:41:05.315Z,97796.73
2024-02-22T19:43:36.408Z,97794.79
2024-02-22T19:46:05.748Z,97788.59
2024-02-22T19:48:37.598Z,97786.21
2024-02-22T19:51:07.296Z,97787.46
2024-02-22T19:53:37.829Z,97780.20
2024-02-22T19:56:07.712Z,97768.55
2024-02-22T19:58:38.474Z,97762.23
2024-02-22T20:01:08.033Z,97755.79
2024-02-22T20:03:38.839Z,97751.07
2024-02-22T20:06:08.764Z,97749.20
2024-02-22T20:08:39.561Z,97748.92
2024-02-22T20:11:11.909Z,97746.23
2024-02-22T20:13:42.597Z,97741.39
2024-02-22T20:16:11.872Z,97731.61
2024-02-22T20:18:42.435Z,97736.89
2024-02-22T20:21:12.173Z,97737.61
2024-02-22T20:23:42.751Z,97742.27
2024-02-22T20:26:12.105Z,97736.59
2024-02-22T20:28:42.819Z,97740.60
2024-02-22T20:31:12.789Z,97743.27
2024-02-22T20:33:43.760Z,97742.38
2024-02-22T20:36:13.351Z,97743.99
2024-02-22T20:38:44.757Z,97746.67
2024-02-22T20:41:17.879Z,97750.73
2024-02-22T20:43:48.949Z,97750.52
2024-02-22T20:46:18.519Z,97749.80
2024-02-22T20:48:53.017Z,97749.23
2024-02-22T20:51:29.799Z,97744.93
2024-02-22T20:53:59.852Z,97740.74
2024-02-22T20:56:33.277Z,97745.25
2024-02-22T20:59:07.649Z,97745.55
2024-02-22T21:01:37.274Z,97749.85
2024-02-22T21:04:08.317Z,97745.77
2024-02-22T21:06:37.893Z,97747.52
2024-02-22T21:09:12.142Z,97742.73
2024-02-22T21:11:44.048Z,97745.34
2024-02-22T21:14:13.883Z,97740.02
2024-02-22T21:16:46.735Z,97742.80
2024-02-22T21:19:16.157Z,97742.35
2024-02-22T21:21:46.824Z,97741.67
2024-02-22T21:24:16.842Z,97738.18
2024-02-22T21:26:47.426Z,97726.40
2024-02-22T21:29:18.447Z,97731.86
2024-02-22T21:31:50.845Z,97736.20
2024-02-22T21:34:21.864Z,97740.96
2024-02-22T21:36:52.414Z,97738.46
2024-02-22T21:39:22.018Z,97738.42
2024-02-22T21:41:52.580Z,97739.70
2024-02-22T21:44:22.104Z,97732.20
2024-02-22T21:46:54.137Z,97735.01
2024-02-22T21:49:23.586Z,97735.53
2024-02-22T21:51:54.082Z,97733.25
2024-02-22T21:54:23.473Z,97731.81
2024-02-22T21:56:54.103Z,97734.17
2024-02-22T21:59:23.459Z,97732.61
2024-02-22T22:04:42.186Z,97729.30
2024-02-22T22:07:12.244Z,97730.34
2024-02-22T22:09:43.135Z,97726.83
2024-02-22T22:12:12.553Z,97723.91
2024-02-22T22:14:43.189Z,97725.58
2024-02-22T22:17:12.866Z,97726.34
2024-02-22T22:19:43.844Z,97725.73
2024-02-22T22:22:13.908Z,97731.00
2024-02-22T22:24:44.558Z,97730.88
2024-02-22T22:27:14.367Z,97728.85
2024-02-22T22:29:44.902Z,97723.33
2024-02-22T22:32:14.307Z,97725.14
2024-02-22T22:34:45.162Z,97716.98
2024-02-22T22:37:16.899Z,97721.73
2024-02-22T22:39:47.929Z,97721.02
2024-02-22T22:42:17.441Z,97724.84
2024-02-22T22:44:50.141Z,97723.36
2024-02-22T22:47:19.563Z,97723.89
2024-02-22T22:49:50.950Z,97725.31
2024-02-22T22:52:20.687Z,97724.48
2024-02-22T22:54:51.468Z,97728.35
2024-02-22T22:57:21.025Z,97731.20
2024-02-22T22:59:53.335Z,97727.34
2024-02-22T23:02:22.760Z,97729.53
2024-02-22T23:04:54.049Z,97728.14
2024-02-22T23:07:23.443Z,97728.46
2024-02-22T23:09:54.512Z,97724.00
2024-02-22T23:12:24.068Z,97722.58
2024-02-22T23:14:56.458Z,97728.70
2024-02-22T23:17:26.215Z,97729.89
2024-02-22T23:19:57.121Z,97728.89
2024-02-22T23:22:30.624Z,97731.80
2024-02-22T23:25:01.289Z,97739.13
2024-02-22T23:27:30.540Z,97744.27
2024-02-22T23:30:01.988Z,97741.88
2024-02-22T23:32:33.390Z,97748.63
2024-02-22T23:35:05.110Z,97745.98
2024-02-22T23:37:34.503Z,97745.89
2024-02-22T23:40:05.843Z,97747.70
2024-02-22T23:42:35.230Z,97748.92
2024-02-22T23:45:06.790Z,97748.89
2024-02-22T23:47:36.279Z,97749.86
2024-02-22T23:50:08.000Z,97752.84
2024-02-22T23:52:37.364Z,97752.43
2024-02-22T23:55:09.119Z,97756.38
2024-02-22T23:57:38.994Z,97751.82
